createdAt,value
2019-01-26T00:00:30.482Z,93.60
2019-01-26T00:03:01.024Z,89.43
2019-01-26T00:05:31.907Z,89.43
2019-01-26T00:08:02.762Z,93.63
2019-01-26T00:10:33.261Z,97.43
2019-01-26T00:13:03.784Z,101.83
2019-01-26T00:15:35.816Z,92.47
2019-01-26T00:18:07.019Z,102.00
2019-01-26T00:20:37.759Z,108.23
2019-01-26T00:23:20.291Z,99.87
2019-01-26T00:25:51.623Z,103.80
2019-01-26T00:28:22.208Z,99.77
2019-01-26T00:30:52.710Z,100.17
2019-01-26T00:33:29.938Z,101.30
2019-01-26T00:36:44.973Z,109.27
2019-01-26T00:39:15.628Z,108.23
2019-01-26T00:41:46.193Z,105.83
2019-01-26T00:44:16.844Z,117.33
2019-01-26T00:46:47.357Z,109.63
2019-01-26T00:49:17.803Z,115.13
2019-01-26T00:51:48.414Z,116.77
2019-01-26T00:54:18.928Z,115.90
2019-01-26T00:56:49.399Z,118.67
2019-01-26T00:59:20.096Z,109.17
2019-01-26T01:01:50.648Z,102.40
2019-01-26T01:04:21.732Z,112.23
2019-01-26T01:06:52.503Z,105.47
2019-01-26T01:09:23.029Z,102.53
2019-01-26T01:11:53.813Z,105.17
2019-01-26T01:14:24.495Z,105.13
2019-01-26T01:16:54.975Z,100.27
2019-01-26T01:19:25.584Z,101.80
2019-01-26T01:21:56.697Z,100.80
2019-01-26T01:24:27.141Z,105.13
2019-01-26T01:26:58.804Z,100.17
2019-01-26T01:29:32.362Z,102.43
2019-01-26T01:32:02.864Z,110.37
2019-01-26T01:34:33.432Z,102.17
2019-01-26T01:37:04.033Z,93.70
2019-01-26T01:39:35.012Z,99.90
2019-01-26T01:42:05.975Z,92.53
2019-01-26T01:44:36.561Z,103.93
2019-01-26T01:47:07.104Z,103.87
2019-01-26T01:49:37.876Z,103.63
2019-01-26T01:52:08.284Z,101.00
2019-01-26T01:54:39.509Z,110.20
2019-01-26T01:57:10.272Z,104.43
2019-01-26T01:59:40.892Z,107.23
2019-01-26T02:02:11.396Z,101.53
2019-01-26T02:04:41.924Z,96.10
2019-01-26T02:07:12.472Z,103.27
2019-01-26T02:09:43.020Z,102.00
2019-01-26T02:12:13.550Z,107.37
2019-01-26T02:14:44.181Z,105.93
2019-01-26T02:17:14.711Z,112.77
2019-01-26T02:19:45.234Z,104.80
2019-01-26T02:22:15.742Z,105.70
2019-01-26T02:24:46.268Z,105.13
2019-01-26T02:27:16.772Z,96.50
2019-01-26T02:29:47.208Z,97.73
2019-01-26T02:32:17.721Z,100.67
2019-01-26T02:34:48.163Z,98.17
2019-01-26T02:37:18.733Z,103.83
2019-01-26T02:39:49.252Z,101.57
2019-01-26T02:42:19.768Z,103.70
2019-01-26T02:44:50.386Z,100.53
2019-01-26T02:47:21.328Z,103.93
2019-01-26T02:49:51.996Z,94.87
2019-01-26T02:52:22.505Z,104.23
2019-01-26T02:54:53.183Z,95.30
2019-01-26T02:57:23.722Z,97.50
2019-01-26T02:59:54.251Z,99.30
2019-01-26T03:02:24.737Z,102.70
2019-01-26T03:04:55.256Z,99.50
2019-01-26T03:07:25.731Z,99.77
2019-01-26T03:09:56.338Z,96.07
2019-01-26T03:12:26.861Z,102.43
2019-01-26T03:14:57.290Z,98.20
2019-01-26T03:17:27.832Z,91.27
2019-01-26T03:20:05.225Z,97.03
2019-01-26T03:22:35.670Z,94.60
2019-01-26T03:25:07.089Z,102.07
2019-01-26T03:27:37.831Z,86.33
2019-01-26T03:30:14.426Z,101.70
2019-01-26T03:32:44.962Z,97.87
2019-01-26T03:35:15.803Z,98.63
2019-01-26T03:37:46.297Z,96.13
2019-01-26T03:40:18.769Z,94.13
2019-01-26T03:42:49.770Z,97.00
2019-01-26T03:45:20.205Z,96.60
2019-01-26T03:47:50.826Z,96.23
2019-01-26T03:50:21.280Z,94.93
2019-01-26T03:52:51.833Z,93.37
2019-01-26T03:55:22.420Z,99.63
2019-01-26T03:57:53.067Z,92.00
2019-01-26T04:00:26.017Z,92.23
2019-01-26T04:02:56.953Z,89.47
2019-01-26T04:05:27.783Z,92.20
2019-01-26T04:07:58.608Z,95.30
2019-01-26T04:10:29.713Z,89.43
2019-01-26T04:13:00.392Z,94.63
2019-01-26T04:15:30.854Z,86.33
2019-01-26T04:18:01.995Z,85.43
2019-01-26T04:20:32.426Z,93.27
2019-01-26T04:23:02.947Z,87.67
2019-01-26T04:25:33.433Z,79.50
2019-01-26T04:28:05.174Z,85.80
2019-01-26T04:30:35.724Z,90.37
2019-01-26T04:33:06.296Z,84.20
2019-01-26T04:35:36.830Z,91.37
2019-01-26T04:38:07.319Z,80.70
2019-01-26T04:40:38.954Z,87.80
2019-01-26T04:43:09.528Z,84.13
2019-01-26T04:45:40.027Z,79.90
2019-01-26T04:48:14.347Z,80.03
2019-01-26T04:50:44.806Z,83.10
2019-01-26T04:53:15.363Z,80.40
2019-01-26T04:55:45.859Z,87.33
2019-01-26T04:58:16.461Z,80.83
2019-01-26T05:00:47.074Z,84.83
2019-01-26T05:03:17.569Z,82.20
2019-01-26T05:05:48.486Z,79.47
2019-01-26T05:08:18.972Z,80.37
2019-01-26T05:10:49.442Z,81.47
2019-01-26T05:13:20.029Z,83.07
2019-01-26T05:15:50.421Z,85.53
2019-01-26T05:18:20.932Z,91.27
2019-01-26T05:20:51.414Z,81.60
2019-01-26T05:23:21.950Z,86.30
2019-01-26T05:25:52.471Z,83.00
2019-01-26T05:28:23.332Z,92.20
2019-01-26T05:30:54.444Z,85.30
2019-01-26T05:33:25.132Z,83.07
2019-01-26T05:35:57.140Z,85.57
2019-01-26T05:38:27.639Z,80.70
2019-01-26T05:40:58.214Z,85.50
2019-01-26T05:43:28.928Z,87.13
2019-01-26T05:45:59.473Z,82.63
2019-01-26T05:48:29.986Z,81.50
2019-01-26T05:51:00.460Z,83.40
2019-01-26T05:53:31.002Z,77.27
2019-01-26T05:56:01.550Z,82.30
2019-01-26T05:58:32.052Z,80.97
2019-01-26T06:04:15.470Z,81.00
2019-01-26T06:06:45.930Z,76.63
2019-01-26T06:09:16.609Z,78.27
2019-01-26T06:11:54.358Z,86.67
2019-01-26T06:14:25.302Z,81.07
2019-01-26T06:16:56.208Z,82.60
2019-01-26T06:19:27.375Z,81.03
2019-01-26T06:21:57.872Z,83.73
2019-01-26T06:24:28.425Z,79.30
2019-01-26T06:26:59.089Z,78.47
2019-01-26T06:29:29.675Z,85.27
2019-01-26T06:32:00.263Z,80.17
2019-01-26T06:34:30.903Z,81.27
2019-01-26T06:37:01.407Z,80.80
2019-01-26T06:39:31.989Z,86.23
2019-01-26T06:42:02.889Z,85.13
2019-01-26T06:44:33.426Z,85.37
2019-01-26T06:47:04.045Z,81.57
2019-01-26T06:49:34.779Z,86.40
2019-01-26T06:52:05.637Z,84.80
2019-01-26T06:54:36.261Z,83.63
2019-01-26T06:57:06.812Z,79.73
2019-01-26T06:59:37.527Z,79.07
2019-01-26T07:02:08.434Z,85.20
2019-01-26T07:04:46.997Z,86.67
2019-01-26T07:07:19.156Z,89.23
2019-01-26T07:09:49.688Z,86.97
2019-01-26T07:12:20.330Z,81.77
2019-01-26T07:15:03.030Z,86.10
2019-01-26T07:17:33.552Z,81.80
2019-01-26T07:20:04.720Z,90.10
2019-01-26T07:22:35.280Z,83.63
2019-01-26T07:25:06.777Z,78.17
2019-01-26T07:27:37.461Z,91.30
2019-01-26T07:30:10.540Z,88.17
2019-01-26T07:32:41.336Z,82.70
2019-01-26T07:35:11.895Z,86.57
2019-01-26T07:37:42.504Z,86.20
2019-01-26T07:40:16.095Z,94.50
2019-01-26T07:42:46.646Z,86.07
2019-01-26T07:45:18.457Z,90.37
2019-01-26T07:47:48.960Z,90.47
2019-01-26T07:50:20.593Z,93.20
2019-01-26T07:52:51.687Z,92.83
2019-01-26T07:55:22.177Z,88.43
2019-01-26T07:57:52.848Z,85.53
2019-01-26T08:00:25.475Z,85.60
2019-01-26T08:02:56.053Z,86.53
2019-01-26T08:05:27.052Z,92.50
2019-01-26T08:07:57.816Z,78.13
2019-01-26T08:10:28.361Z,79.30
2019-01-26T08:13:00.233Z,84.17
2019-01-26T08:15:36.175Z,82.27
2019-01-26T08:18:08.453Z,78.67
2019-01-26T08:20:39.052Z,82.27
2019-01-26T08:23:09.811Z,80.87
2019-01-26T08:25:40.268Z,79.27
2019-01-26T08:28:10.906Z,73.80
2019-01-26T08:30:41.339Z,77.67
2019-01-26T08:33:11.889Z,71.73
2019-01-26T08:35:42.484Z,71.57
2019-01-26T08:38:13.900Z,67.87
2019-01-26T08:40:45.962Z,65.33
2019-01-26T08:43:16.609Z,76.37
2019-01-26T08:45:51.094Z,70.43
2019-01-26T08:48:21.765Z,70.33
2019-01-26T08:50:52.396Z,75.90
2019-01-26T08:53:22.922Z,74.70
2019-01-26T08:55:53.542Z,68.60
2019-01-26T08:58:24.126Z,67.13
2019-01-26T09:00:54.656Z,74.73
2019-01-26T09:03:44.895Z,63.33
2019-01-26T09:06:21.521Z,63.57
2019-01-26T09:08:52.098Z,64.27
2019-01-26T09:11:22.690Z,68.87
2019-01-26T09:13:53.249Z,71.90
2019-01-26T09:16:24.433Z,71.23
2019-01-26T09:18:54.997Z,69.53
2019-01-26T09:21:25.484Z,65.57
2019-01-26T09:23:56.205Z,71.67
2019-01-26T09:26:26.731Z,65.70
2019-01-26T09:28:57.339Z,70.03
2019-01-26T09:31:27.926Z,60.90
2019-01-26T09:33:58.485Z,64.37
2019-01-26T09:36:29.087Z,71.03
2019-01-26T09:38:59.644Z,64.20
2019-01-26T09:41:30.251Z,71.70
2019-01-26T09:44:00.773Z,64.07
2019-01-26T09:46:31.265Z,65.13
2019-01-26T09:49:01.795Z,63.60
2019-01-26T09:51:32.424Z,70.40
2019-01-26T09:54:03.159Z,72.60
2019-01-26T09:56:33.658Z,74.43
2019-01-26T09:59:04.522Z,71.27
2019-01-26T10:01:35.179Z,71.10
2019-01-26T10:04:05.862Z,68.07
2019-01-26T10:06:36.356Z,74.70
2019-01-26T10:09:13.204Z,80.23
2019-01-26T10:11:43.783Z,66.87
2019-01-26T10:14:14.338Z,66.07
2019-01-26T10:16:44.878Z,64.80
2019-01-26T10:19:15.395Z,65.37
2019-01-26T10:21:46.066Z,67.93
2019-01-26T10:24:16.680Z,69.27
2019-01-26T10:26:47.299Z,72.47
2019-01-26T10:29:17.798Z,67.33
2019-01-26T10:31:48.885Z,68.63
2019-01-26T10:34:19.812Z,69.53
2019-01-26T10:36:57.658Z,74.70
2019-01-26T10:39:28.322Z,69.30
2019-01-26T10:42:27.091Z,69.33
2019-01-26T10:44:57.860Z,67.60
2019-01-26T10:47:28.303Z,71.43
2019-01-26T10:49:58.796Z,75.10
2019-01-26T10:52:29.623Z,68.73
2019-01-26T10:55:00.501Z,71.47
2019-01-26T10:57:31.673Z,74.57
2019-01-26T11:00:02.591Z,75.33
2019-01-26T11:02:33.493Z,76.53
2019-01-26T11:05:04.287Z,70.90
2019-01-26T11:07:35.043Z,72.27
2019-01-26T11:10:06.928Z,75.93
2019-01-26T11:12:37.372Z,77.03
2019-01-26T11:15:09.293Z,80.63
2019-01-26T11:17:39.769Z,80.97
2019-01-26T11:20:10.870Z,71.40
2019-01-26T11:22:41.428Z,70.10
2019-01-26T11:25:12.167Z,69.57
2019-01-26T11:27:42.964Z,71.90
2019-01-26T11:30:13.593Z,73.33
2019-01-26T11:32:44.149Z,71.90
2019-01-26T11:35:14.863Z,71.57
2019-01-26T11:37:45.460Z,77.47
2019-01-26T11:40:21.752Z,76.63
2019-01-26T11:42:53.390Z,76.67
2019-01-26T11:45:51.666Z,83.30
2019-01-26T11:48:27.833Z,74.70
2019-01-26T11:51:06.530Z,73.10
2019-01-26T11:53:37.019Z,79.73
2019-01-26T11:56:16.286Z,75.83
2019-01-26T11:58:46.804Z,78.83
2019-01-26T12:01:35.448Z,76.03
2019-01-26T12:04:25.934Z,74.97
2019-01-26T12:07:04.636Z,68.77
2019-01-26T12:09:35.118Z,70.73
2019-01-26T12:12:05.758Z,75.03
2019-01-26T12:14:36.360Z,73.60
2019-01-26T12:17:06.846Z,81.57
2019-01-26T12:19:37.576Z,74.47
2019-01-26T12:22:08.116Z,76.87
2019-01-26T12:24:38.570Z,75.70
2019-01-26T12:27:09.230Z,86.87
2019-01-26T12:29:40.312Z,91.10
2019-01-26T12:32:11.010Z,98.83
2019-01-26T12:34:41.511Z,86.20
2019-01-26T12:37:12.154Z,87.40
2019-01-26T12:39:42.678Z,90.10
2019-01-26T12:42:13.234Z,89.63
2019-01-26T12:44:43.729Z,81.53
2019-01-26T12:47:17.080Z,90.03
2019-01-26T12:49:46.657Z,95.03
2019-01-26T12:52:17.191Z,85.43
2019-01-26T12:54:47.709Z,96.90
2019-01-26T12:57:18.862Z,89.80
2019-01-26T12:59:49.289Z,85.63
2019-01-26T13:02:19.823Z,88.13
2019-01-26T13:04:50.531Z,93.40
2019-01-26T13:07:21.139Z,84.10
2019-01-26T13:09:51.673Z,84.10
2019-01-26T13:12:22.389Z,86.40
2019-01-26T13:14:53.025Z,91.30
2019-01-26T13:17:23.489Z,90.83
2019-01-26T13:19:54.043Z,90.57
2019-01-26T13:22:24.547Z,93.53
2019-01-26T13:24:55.113Z,87.70
2019-01-26T13:27:25.754Z,86.93
2019-01-26T13:29:56.259Z,90.73
2019-01-26T13:32:26.795Z,90.50
2019-01-26T13:34:57.304Z,83.80
2019-01-26T13:37:27.799Z,92.97
2019-01-26T13:39:58.308Z,90.77
2019-01-26T13:42:28.826Z,85.77
2019-01-26T13:44:59.409Z,84.90
2019-01-26T13:47:30.008Z,86.67
2019-01-26T13:50:00.506Z,90.23
2019-01-26T13:52:30.970Z,86.00
2019-01-26T13:55:01.574Z,82.33
2019-01-26T13:57:31.952Z,76.73
2019-01-26T14:00:02.527Z,85.37
2019-01-26T14:02:33.028Z,74.80
2019-01-26T14:05:03.509Z,69.73
2019-01-26T14:07:34.038Z,67.33
2019-01-26T14:10:05.584Z,69.67
2019-01-26T14:12:36.064Z,70.63
2019-01-26T14:15:07.058Z,75.77
2019-01-26T14:17:37.566Z,74.97
2019-01-26T14:20:11.307Z,67.33
2019-01-26T14:22:41.873Z,75.93
2019-01-26T14:25:12.652Z,82.73
2019-01-26T14:27:43.381Z,76.17
2019-01-26T14:30:19.971Z,81.27
2019-01-26T14:32:52.633Z,74.20
2019-01-26T14:35:22.625Z,85.50
2019-01-26T14:37:53.155Z,79.10
2019-01-26T14:40:23.677Z,79.23
2019-01-26T14:42:54.704Z,84.83
2019-01-26T14:45:25.665Z,78.53
2019-01-26T14:47:56.345Z,86.47
2019-01-26T14:50:26.875Z,82.97
2019-01-26T14:52:57.571Z,80.60
2019-01-26T14:55:28.087Z,83.43
2019-01-26T14:57:58.661Z,85.43
2019-01-26T15:00:31.165Z,95.87
2019-01-26T15:03:01.823Z,88.80
2019-01-26T15:05:32.555Z,95.67
2019-01-26T15:08:03.378Z,93.07
2019-01-26T15:10:33.912Z,93.97
2019-01-26T15:13:04.776Z,101.97
2019-01-26T15:15:35.316Z,96.30
2019-01-26T15:18:06.054Z,112.33
2019-01-26T15:20:38.852Z,103.03
2019-01-26T15:23:09.780Z,101.23
2019-01-26T15:25:40.387Z,105.10
2019-01-26T15:28:11.022Z,101.70
2019-01-26T15:30:43.650Z,114.20
2019-01-26T15:33:15.070Z,125.07
2019-01-26T15:35:45.566Z,117.70
2019-01-26T15:38:16.058Z,130.97
2019-01-26T15:40:46.625Z,114.93
2019-01-26T15:43:17.114Z,135.77
2019-01-26T15:45:49.424Z,124.27
2019-01-26T15:48:20.029Z,129.00
2019-01-26T15:50:50.566Z,105.33
2019-01-26T15:53:21.123Z,105.47
2019-01-26T15:55:52.182Z,106.47
2019-01-26T15:58:22.745Z,109.17
2019-01-26T16:00:53.193Z,113.70
2019-01-26T16:03:23.680Z,111.77
2019-01-26T16:05:54.138Z,108.37
2019-01-26T16:08:25.063Z,105.37
2019-01-26T16:10:56.147Z,107.10
2019-01-26T16:13:26.633Z,99.03
2019-01-26T16:15:59.337Z,105.57
2019-01-26T16:18:30.445Z,107.33
2019-01-26T16:21:01.283Z,105.80
2019-01-26T16:23:32.152Z,100.60
2019-01-26T16:26:02.777Z,102.87
2019-01-26T16:28:33.966Z,103.70
2019-01-26T16:31:04.568Z,106.87
2019-01-26T16:33:35.019Z,101.90
2019-01-26T16:36:05.891Z,101.00
2019-01-26T16:38:36.346Z,97.57
2019-01-26T16:41:07.330Z,102.37
2019-01-26T16:43:38.058Z,104.33
2019-01-26T16:46:08.545Z,96.67
2019-01-26T16:48:39.058Z,101.63
2019-01-26T16:51:09.717Z,100.63
2019-01-26T16:53:41.008Z,104.57
2019-01-26T16:56:12.280Z,95.97
2019-01-26T16:58:43.073Z,95.77
2019-01-26T17:01:13.560Z,106.80
2019-01-26T17:03:44.590Z,105.40
2019-01-26T17:06:15.642Z,103.23
2019-01-26T17:08:46.570Z,106.07
2019-01-26T17:11:17.208Z,107.37
2019-01-26T17:13:47.778Z,106.83
2019-01-26T17:16:18.393Z,103.97
2019-01-26T17:18:49.082Z,107.03
2019-01-26T17:21:19.790Z,106.67
2019-01-26T17:23:50.591Z,110.60
2019-01-26T17:26:21.162Z,122.83
2019-01-26T17:28:51.889Z,128.47
2019-01-26T17:31:22.652Z,136.57
2019-01-26T17:33:53.245Z,133.50
2019-01-26T17:36:24.153Z,127.50
2019-01-26T17:38:55.007Z,112.93
2019-01-26T17:41:25.939Z,114.93
2019-01-26T17:43:56.509Z,113.77
2019-01-26T17:46:27.609Z,108.13
2019-01-26T17:48:58.227Z,111.93
2019-01-26T17:51:28.757Z,116.37
2019-01-26T17:53:59.365Z,118.97
2019-01-26T17:56:29.927Z,109.47
2019-01-26T17:59:00.472Z,113.27
2019-01-26T18:01:31.334Z,110.33
2019-01-26T18:04:02.513Z,112.43
2019-01-26T18:06:33.152Z,108.10
2019-01-26T18:09:05.227Z,120.27
2019-01-26T18:11:37.332Z,125.50
2019-01-26T18:14:07.925Z,128.37
2019-01-26T18:16:38.806Z,119.23
2019-01-26T18:19:10.360Z,119.27
2019-01-26T18:21:41.097Z,123.17
2019-01-26T18:24:11.740Z,127.90
2019-01-26T18:26:42.278Z,120.80
2019-01-26T18:29:12.702Z,130.47
2019-01-26T18:31:43.348Z,125.53
2019-01-26T18:34:13.717Z,127.57
2019-01-26T18:36:44.232Z,120.50
2019-01-26T18:39:14.810Z,135.33
2019-01-26T18:41:45.503Z,133.57
2019-01-26T18:44:15.986Z,129.83
2019-01-26T18:46:46.680Z,129.57
2019-01-26T18:49:17.481Z,132.53
2019-01-26T18:51:48.243Z,136.93
2019-01-26T18:54:18.914Z,126.50
2019-01-26T18:56:49.703Z,130.37
2019-01-26T18:59:20.544Z,129.07
2019-01-26T19:01:51.812Z,125.67
2019-01-26T19:04:29.619Z,126.33
2019-01-26T19:07:00.134Z,126.10
2019-01-26T19:09:30.892Z,122.53
2019-01-26T19:12:01.473Z,122.10
2019-01-26T19:14:32.066Z,129.97
2019-01-26T19:17:02.755Z,125.20
2019-01-26T19:19:33.546Z,133.70
2019-01-26T19:22:05.168Z,129.83
2019-01-26T19:24:35.764Z,127.10
2019-01-26T19:27:07.844Z,130.80
2019-01-26T19:29:39.270Z,131.77
2019-01-26T19:32:10.057Z,128.80
2019-01-26T19:34:40.679Z,132.60
2019-01-26T19:37:12.314Z,141.07
2019-01-26T19:39:43.418Z,132.00
2019-01-26T19:42:16.141Z,130.83
2019-01-26T19:44:47.071Z,138.63
2019-01-26T19:47:17.801Z,129.03
2019-01-26T19:49:48.315Z,134.67
2019-01-26T19:52:18.866Z,141.23
2019-01-26T19:54:49.615Z,134.00
2019-01-26T19:57:20.332Z,132.80
2019-01-26T19:59:50.966Z,129.60
2019-01-26T20:02:22.794Z,137.67
2019-01-26T20:04:53.472Z,129.27
2019-01-26T20:07:24.413Z,133.87
2019-01-26T20:09:55.707Z,140.17
2019-01-26T20:12:26.476Z,139.87
2019-01-26T20:14:59.104Z,133.80
2019-01-26T20:17:31.025Z,135.97
2019-01-26T20:20:02.831Z,138.57
2019-01-26T20:22:34.449Z,133.17
2019-01-26T20:25:05.604Z,139.90
2019-01-26T20:27:36.760Z,152.67
2019-01-26T20:30:10.404Z,171.90
2019-01-26T20:32:41.116Z,152.87
2019-01-26T20:35:12.041Z,151.80
2019-01-26T20:37:43.816Z,131.40
2019-01-26T20:40:16.957Z,131.53
2019-01-26T20:42:47.519Z,141.93
2019-01-26T20:45:21.109Z,157.83
2019-01-26T20:47:52.020Z,145.50
2019-01-26T20:50:22.689Z,164.13
2019-01-26T20:52:53.463Z,163.23
2019-01-26T20:55:23.997Z,153.30
2019-01-26T20:57:55.187Z,136.33
2019-01-26T21:00:27.858Z,136.50
2019-01-26T21:02:58.337Z,139.07
2019-01-26T21:05:29.195Z,150.27
2019-01-26T21:07:59.913Z,148.13
2019-01-26T21:10:31.091Z,139.40
2019-01-26T21:13:01.914Z,136.07
2019-01-26T21:15:33.025Z,138.73
2019-01-26T21:18:03.729Z,147.77
2019-01-26T21:20:35.071Z,130.60
2019-01-26T21:23:05.971Z,133.73
2019-01-26T21:25:36.975Z,137.17
2019-01-26T21:28:07.793Z,135.80
2019-01-26T21:30:39.059Z,130.00
2019-01-26T21:33:09.895Z,138.37
2019-01-26T21:35:40.916Z,146.73
2019-01-26T21:38:12.149Z,139.43
2019-01-26T21:40:43.014Z,139.10
2019-01-26T21:43:13.702Z,139.77
2019-01-26T21:45:44.494Z,139.47
2019-01-26T21:48:15.256Z,140.47
2019-01-26T21:50:48.464Z,139.07
2019-01-26T21:53:19.337Z,138.37
2019-01-26T21:55:50.635Z,144.10
2019-01-26T21:58:21.650Z,137.17
2019-01-26T22:00:52.294Z,127.73
2019-01-26T22:03:23.244Z,123.50
2019-01-26T22:05:53.856Z,134.87
2019-01-26T22:08:24.288Z,137.40
2019-01-26T22:10:54.967Z,131.77
2019-01-26T22:13:25.510Z,134.83
2019-01-26T22:15:56.240Z,139.00
2019-01-26T22:18:27.142Z,138.13
2019-01-26T22:20:57.914Z,135.80
2019-01-26T22:23:29.272Z,128.73
2019-01-26T22:26:00.143Z,143.03
2019-01-26T22:28:30.739Z,140.23
2019-01-26T22:31:04.022Z,133.10
2019-01-26T22:33:35.014Z,130.67
2019-01-26T22:36:06.012Z,131.87
2019-01-26T22:38:36.673Z,144.17
2019-01-26T22:41:07.409Z,163.17
2019-01-26T22:43:39.142Z,141.33
2019-01-26T22:46:09.978Z,148.93
2019-01-26T22:48:40.806Z,144.80
2019-01-26T22:51:12.093Z,146.30
2019-01-26T22:53:42.830Z,136.73
2019-01-26T22:56:13.511Z,142.13
2019-01-26T22:58:44.085Z,143.70
2019-01-26T23:01:25.287Z,150.40
2019-01-26T23:04:37.068Z,142.63
2019-01-26T23:07:34.048Z,142.17
2019-01-26T23:10:39.513Z,149.70
2019-01-26T23:13:42.383Z,157.37
2019-01-26T23:17:02.274Z,154.33
2019-01-26T23:20:21.979Z,150.53
2019-01-26T23:23:29.408Z,147.63
2019-01-26T23:26:41.452Z,151.27
2019-01-26T23:29:40.102Z,146.13
2019-01-26T23:32:10.684Z,153.33
2019-01-26T23:34:41.220Z,146.23
2019-01-26T23:37:11.846Z,151.37
2019-01-26T23:39:42.356Z,154.50
2019-01-26T23:42:13.193Z,150.33
2019-01-26T23:44:43.998Z,158.20
2019-01-26T23:47:14.602Z,150.87
2019-01-26T23:49:45.394Z,151.43
2019-01-26T23:52:15.897Z,155.70
2019-01-26T23:54:46.330Z,159.47
2019-01-26T23:57:17.066Z,166.73
2019-01-26T23:59:47.549Z,147.77
